LOT2XZ EDDS-EPWA
Flight info
| Callsign | LOT2XZ |
|---|---|
| Flight time | 1h 32m |
| Altitude | 23000 |
| Route | DKB9B DKB N869 AMOSA/N0457F370 N869 ANELA Z715 KULOK L984 OKG DCT BALTU DCT LEGAZ DCT LAGAR DCT OKENO Q277 AGAVA |
| Aircraft | B38M/M-SDE1FGHILORVWXY/HB1 |
Departure
| Time | 2026-05-07 14:12 |
|---|---|
| Airport | Stuttgart Airport (EDDS) |
Arrival
| Time | 2026-05-07 15:44 |
|---|---|
| Airport | Warsaw Chopin Airport (EPWA) |
| Time | Latitude | Longitude | Altitude | Speed | Heading |
|---|---|---|---|---|---|
| 2026-05-07 13:40 | 48.68742 | 9.19394 | 1313 ft | 0 kts | 164° |
| 2026-05-07 14:03 | 48.68740 | 9.19395 | 1313 ft | 2 kts | 164° |
| 2026-05-07 14:03 | 48.68710 | 9.19409 | 1312 ft | 7 kts | 164° |
| 2026-05-07 14:03 | 48.68686 | 9.19466 | 1309 ft | 9 kts | 78° |
| 2026-05-07 14:04 | 48.68706 | 9.19582 | 1306 ft | 14 kts | 75° |
| 2026-05-07 14:04 | 48.68738 | 9.19749 | 1302 ft | 19 kts | 71° |
| 2026-05-07 14:04 | 48.68784 | 9.19919 | 1298 ft | 16 kts | 53° |
| 2026-05-07 14:04 | 48.68844 | 9.20061 | 1296 ft | 17 kts | 70° |
| 2026-05-07 14:05 | 48.68880 | 9.20252 | 1292 ft | 21 kts | 74° |
| 2026-05-07 14:05 | 48.68925 | 9.20488 | 1288 ft | 26 kts | 73° |
| 2026-05-07 14:05 | 48.68978 | 9.20769 | 1281 ft | 30 kts | 74° |
| 2026-05-07 14:05 | 48.68996 | 9.20862 | 1278 ft | 2 kts | 74° |
| 2026-05-07 14:06 | 48.69005 | 9.20908 | 1275 ft | 7 kts | 74° |
| 2026-05-07 14:06 | 48.69023 | 9.21006 | 1274 ft | 12 kts | 74° |
| 2026-05-07 14:06 | 48.69050 | 9.21149 | 1274 ft | 17 kts | 74° |
| 2026-05-07 14:06 | 48.69087 | 9.21344 | 1265 ft | 22 kts | 73° |
| 2026-05-07 14:07 | 48.69134 | 9.21584 | 1263 ft | 26 kts | 73° |
| 2026-05-07 14:07 | 48.69186 | 9.21867 | 1261 ft | 30 kts | 73° |
| 2026-05-07 14:07 | 48.69248 | 9.22188 | 1249 ft | 34 kts | 74° |
| 2026-05-07 14:07 | 48.69313 | 9.22528 | 1236 ft | 26 kts | 74° |
| 2026-05-07 14:08 | 48.69366 | 9.22809 | 1232 ft | 30 kts | 74° |
| 2026-05-07 14:08 | 48.69426 | 9.23127 | 1225 ft | 33 kts | 74° |
| 2026-05-07 14:08 | 48.69478 | 9.23402 | 1220 ft | 29 kts | 74° |
| 2026-05-07 14:08 | 48.69537 | 9.23712 | 1213 ft | 32 kts | 73° |
| 2026-05-07 14:09 | 48.69593 | 9.24011 | 1207 ft | 24 kts | 75° |
| 2026-05-07 14:09 | 48.69582 | 9.24226 | 1199 ft | 22 kts | 118° |
| 2026-05-07 14:09 | 48.69497 | 9.24318 | 1193 ft | 0 kts | 164° |
| 2026-05-07 14:09 | 48.69488 | 9.24322 | 1192 ft | 2 kts | 164° |
| 2026-05-07 14:10 | 48.69461 | 9.24333 | 1192 ft | 6 kts | 164° |
| 2026-05-07 14:10 | 48.69421 | 9.24336 | 1193 ft | 6 kts | 194° |
| 2026-05-07 14:10 | 48.69387 | 9.24300 | 1194 ft | 6 kts | 245° |
| 2026-05-07 14:10 | 48.69378 | 9.24252 | 1195 ft | 0 kts | 254° |
| 2026-05-07 14:11 | 48.69373 | 9.24224 | 1195 ft | 11 kts | 254° |
| 2026-05-07 14:11 | 48.69281 | 9.23740 | 1205 ft | 83 kts | 254° |
| 2026-05-07 14:11 | 48.69062 | 9.22587 | 1228 ft | 142 kts | 254° |
| 2026-05-07 14:12 | 48.68757 | 9.21006 | 1556 ft | 163 kts | 257° |
| 2026-05-07 14:12 | 48.68478 | 9.19264 | 2148 ft | 179 kts | 258° |
| 2026-05-07 14:12 | 48.68254 | 9.17961 | 2632 ft | 184 kts | 256° |
| 2026-05-07 14:12 | 48.68123 | 9.17296 | 2967 ft | 180 kts | 255° |
| 2026-05-07 14:13 | 48.67762 | 9.15528 | 3464 ft | 199 kts | 255° |
| 2026-05-07 14:13 | 48.67324 | 9.13399 | 3867 ft | 221 kts | 254° |
| 2026-05-07 14:13 | 48.66946 | 9.11043 | 4269 ft | 238 kts | 265° |
| 2026-05-07 14:13 | 48.67122 | 9.08607 | 5089 ft | 237 kts | 288° |
| 2026-05-07 14:14 | 48.67983 | 9.06498 | 5942 ft | 240 kts | 314° |
| 2026-05-07 14:14 | 48.69382 | 9.05083 | 6740 ft | 246 kts | 335° |
| 2026-05-07 14:14 | 48.71070 | 9.04506 | 7497 ft | 254 kts | 355° |
| 2026-05-07 14:14 | 48.72862 | 9.04588 | 8242 ft | 259 kts | 355° |
| 2026-05-07 14:15 | 48.74605 | 9.03995 | 9039 ft | 257 kts | 342° |
| 2026-05-07 14:15 | 48.76412 | 9.03975 | 9741 ft | 270 kts | 15° |
| 2026-05-07 14:15 | 48.77958 | 9.05524 | 10460 ft | 278 kts | 50° |
| 2026-05-07 14:15 | 48.78735 | 9.08181 | 11247 ft | 280 kts | 78° |
| 2026-05-07 14:16 | 48.79206 | 9.11130 | 11706 ft | 297 kts | 70° |
| 2026-05-07 14:16 | 48.79987 | 9.14141 | 12078 ft | 317 kts | 66° |
| 2026-05-07 14:16 | 48.80899 | 9.17285 | 12425 ft | 336 kts | 64° |
| 2026-05-07 14:16 | 48.81916 | 9.20584 | 12809 ft | 352 kts | 64° |
| 2026-05-07 14:17 | 48.82995 | 9.24009 | 13356 ft | 363 kts | 63° |
| 2026-05-07 14:17 | 48.84093 | 9.27463 | 14118 ft | 366 kts | 63° |
| 2026-05-07 14:17 | 48.85209 | 9.30965 | 14782 ft | 370 kts | 63° |
| 2026-05-07 14:17 | 48.86336 | 9.34505 | 15446 ft | 374 kts | 63° |
| 2026-05-07 14:18 | 48.87475 | 9.38080 | 16092 ft | 378 kts | 63° |
| 2026-05-07 14:18 | 48.88627 | 9.41704 | 16727 ft | 383 kts | 63° |
| 2026-05-07 14:18 | 48.89791 | 9.45370 | 17366 ft | 387 kts | 63° |
| 2026-05-07 14:18 | 48.90569 | 9.47824 | 17774 ft | 390 kts | 63° |
| 2026-05-07 14:19 | 48.92140 | 9.52783 | 18587 ft | 395 kts | 63° |
| 2026-05-07 14:19 | 48.93337 | 9.56573 | 19136 ft | 398 kts | 63° |
| 2026-05-07 14:19 | 48.94538 | 9.60377 | 19660 ft | 400 kts | 63° |
| 2026-05-07 14:19 | 48.95744 | 9.64207 | 20183 ft | 403 kts | 63° |
| 2026-05-07 14:20 | 48.96567 | 9.66822 | 20537 ft | 405 kts | 63° |
| 2026-05-07 14:20 | 48.97785 | 9.70701 | 21046 ft | 408 kts | 63° |
| 2026-05-07 14:20 | 48.99001 | 9.74578 | 21573 ft | 411 kts | 63° |
| 2026-05-07 14:20 | 49.00235 | 9.78518 | 22102 ft | 414 kts | 62° |
| 2026-05-07 14:21 | 49.01479 | 9.82498 | 22634 ft | 417 kts | 62° |
| 2026-05-07 14:21 | 49.02732 | 9.86516 | 23179 ft | 420 kts | 62° |
| 2026-05-07 14:21 | 49.03992 | 9.90559 | 23684 ft | 423 kts | 62° |
| 2026-05-07 14:21 | 49.05257 | 9.94627 | 24139 ft | 426 kts | 63° |
| 2026-05-07 14:22 | 49.06956 | 10.00103 | 24789 ft | 429 kts | 63° |
| 2026-05-07 14:22 | 49.07806 | 10.02845 | 25102 ft | 430 kts | 63° |
| 2026-05-07 14:22 | 49.09071 | 10.06932 | 25585 ft | 433 kts | 63° |
| 2026-05-07 14:22 | 49.10356 | 10.11094 | 26092 ft | 434 kts | 63° |
| 2026-05-07 14:23 | 49.11643 | 10.15268 | 26546 ft | 437 kts | 63° |
| 2026-05-07 14:23 | 49.12940 | 10.19485 | 27007 ft | 439 kts | 63° |
| 2026-05-07 14:23 | 49.14393 | 10.23578 | 27445 ft | 438 kts | 51° |
| 2026-05-07 14:23 | 49.16430 | 10.27016 | 27917 ft | 436 kts | 43° |
| 2026-05-07 14:24 | 49.18548 | 10.30375 | 28284 ft | 441 kts | 43° |
| 2026-05-07 14:24 | 49.20694 | 10.33749 | 28725 ft | 442 kts | 43° |
| 2026-05-07 14:24 | 49.22853 | 10.37117 | 29121 ft | 445 kts | 43° |
| 2026-05-07 14:24 | 49.25020 | 10.40432 | 29518 ft | 447 kts | 42° |
| 2026-05-07 14:25 | 49.27230 | 10.43809 | 29909 ft | 450 kts | 42° |
| 2026-05-07 14:25 | 49.29450 | 10.47211 | 30308 ft | 451 kts | 43° |
| 2026-05-07 14:25 | 49.31676 | 10.50624 | 30627 ft | 454 kts | 43° |
| 2026-05-07 14:25 | 49.33920 | 10.54073 | 30900 ft | 457 kts | 43° |
| 2026-05-07 14:26 | 49.36128 | 10.57604 | 31196 ft | 460 kts | 44° |
| 2026-05-07 14:26 | 49.38346 | 10.61176 | 31463 ft | 463 kts | 44° |
| 2026-05-07 14:26 | 49.40576 | 10.64760 | 31748 ft | 466 kts | 44° |
| 2026-05-07 14:26 | 49.42838 | 10.68329 | 32084 ft | 467 kts | 44° |
| 2026-05-07 14:27 | 49.45107 | 10.71905 | 32465 ft | 467 kts | 44° |
| 2026-05-07 14:27 | 49.47345 | 10.75443 | 32844 ft | 468 kts | 44° |
| 2026-05-07 14:27 | 49.49640 | 10.79077 | 33250 ft | 467 kts | 45° |
| 2026-05-07 14:27 | 49.51876 | 10.82615 | 33582 ft | 469 kts | 44° |
| 2026-05-07 14:28 | 49.54188 | 10.86272 | 33866 ft | 471 kts | 45° |
| 2026-05-07 14:28 | 49.56472 | 10.89891 | 34176 ft | 472 kts | 45° |
| 2026-05-07 14:28 | 49.58763 | 10.93529 | 34441 ft | 473 kts | 45° |
| 2026-05-07 14:28 | 49.61020 | 10.97116 | 34739 ft | 473 kts | 45° |
| 2026-05-07 14:29 | 49.63313 | 11.00766 | 34989 ft | 475 kts | 45° |
| 2026-05-07 14:29 | 49.67908 | 11.08096 | 35048 ft | 473 kts | 45° |
| 2026-05-07 14:30 | 49.72471 | 11.15393 | 35035 ft | 471 kts | 45° |
| 2026-05-07 14:30 | 49.77067 | 11.22633 | 35023 ft | 471 kts | 39° |
| 2026-05-07 14:31 | 49.82344 | 11.28621 | 35015 ft | 471 kts | 35° |
| 2026-05-07 14:31 | 49.87628 | 11.34610 | 35016 ft | 470 kts | 35° |
| 2026-05-07 14:32 | 49.92891 | 11.40639 | 35009 ft | 470 kts | 39° |
| 2026-05-07 14:32 | 49.97545 | 11.47783 | 35001 ft | 473 kts | 44° |
| 2026-05-07 14:33 | 50.02182 | 11.55033 | 35007 ft | 473 kts | 44° |
| 2026-05-07 14:33 | 50.06042 | 11.63228 | 35002 ft | 472 kts | 68° |
| 2026-05-07 14:33 | 50.06924 | 11.68125 | 35002 ft | 471 kts | 83° |
| 2026-05-07 14:34 | 50.07087 | 11.73203 | 35013 ft | 469 kts | 90° |
| 2026-05-07 14:34 | 50.07121 | 11.83366 | 34998 ft | 470 kts | 91° |
| 2026-05-07 14:35 | 50.07062 | 11.93539 | 35003 ft | 470 kts | 91° |
| 2026-05-07 14:35 | 50.06973 | 12.03726 | 35008 ft | 471 kts | 92° |
| 2026-05-07 14:36 | 50.06863 | 12.13934 | 34992 ft | 471 kts | 92° |
| 2026-05-07 14:36 | 50.06737 | 12.24068 | 34999 ft | 471 kts | 92° |
| 2026-05-07 14:37 | 50.06603 | 12.34273 | 34992 ft | 471 kts | 92° |
| 2026-05-07 14:37 | 50.06871 | 12.49580 | 35002 ft | 473 kts | 88° |
| 2026-05-07 14:38 | 50.07167 | 12.59794 | 34988 ft | 472 kts | 89° |
| 2026-05-07 14:38 | 50.07443 | 12.70003 | 34992 ft | 472 kts | 89° |
| 2026-05-07 14:39 | 50.07710 | 12.80226 | 34988 ft | 472 kts | 89° |
| 2026-05-07 14:39 | 50.07969 | 12.90447 | 34978 ft | 472 kts | 89° |
| 2026-05-07 14:40 | 50.08218 | 13.00686 | 34991 ft | 474 kts | 90° |
| 2026-05-07 14:40 | 50.08457 | 13.10870 | 34985 ft | 474 kts | 89° |
| 2026-05-07 14:41 | 50.08689 | 13.21118 | 34974 ft | 474 kts | 90° |
| 2026-05-07 14:41 | 50.09224 | 13.31328 | 34953 ft | 475 kts | 76° |
| 2026-05-07 14:42 | 50.10459 | 13.36104 | 34974 ft | 477 kts | 61° |
| 2026-05-07 14:42 | 50.12158 | 13.40532 | 34960 ft | 478 kts | 60° |
| 2026-05-07 14:42 | 50.15599 | 13.49397 | 34972 ft | 478 kts | 59° |
| 2026-05-07 14:43 | 50.19087 | 13.58252 | 34967 ft | 478 kts | 59° |
| 2026-05-07 14:43 | 50.22564 | 13.67090 | 34968 ft | 478 kts | 59° |
| 2026-05-07 14:44 | 50.26034 | 13.75936 | 34964 ft | 478 kts | 59° |
| 2026-05-07 14:44 | 50.29476 | 13.84745 | 34964 ft | 478 kts | 59° |
| 2026-05-07 14:45 | 50.32939 | 13.93635 | 34966 ft | 478 kts | 59° |
| 2026-05-07 14:45 | 50.36402 | 14.02557 | 34962 ft | 481 kts | 60° |
| 2026-05-07 14:46 | 50.39866 | 14.11510 | 34963 ft | 481 kts | 60° |
| 2026-05-07 14:46 | 50.43328 | 14.20493 | 34964 ft | 481 kts | 60° |
| 2026-05-07 14:47 | 50.46782 | 14.29483 | 34970 ft | 481 kts | 60° |
| 2026-05-07 14:47 | 50.50234 | 14.38499 | 34969 ft | 481 kts | 60° |
| 2026-05-07 14:48 | 50.53656 | 14.47466 | 34963 ft | 481 kts | 60° |
| 2026-05-07 14:48 | 50.57092 | 14.56505 | 34944 ft | 481 kts | 61° |
| 2026-05-07 14:49 | 50.60530 | 14.65578 | 34958 ft | 484 kts | 61° |
| 2026-05-07 14:49 | 50.63969 | 14.74679 | 34962 ft | 483 kts | 62° |
| 2026-05-07 14:50 | 50.66983 | 14.84101 | 34966 ft | 479 kts | 73° |
| 2026-05-07 14:50 | 50.69349 | 14.93953 | 34954 ft | 481 kts | 72° |
| 2026-05-07 14:51 | 50.71706 | 15.03772 | 34958 ft | 481 kts | 72° |
| 2026-05-07 14:51 | 50.74063 | 15.13644 | 34945 ft | 481 kts | 72° |
| 2026-05-07 14:52 | 50.76422 | 15.23575 | 34960 ft | 484 kts | 73° |
| 2026-05-07 14:52 | 50.78497 | 15.33664 | 34963 ft | 483 kts | 76° |
| 2026-05-07 14:53 | 50.80572 | 15.43762 | 34970 ft | 482 kts | 76° |
| 2026-05-07 14:53 | 50.82629 | 15.53784 | 34971 ft | 482 kts | 76° |
| 2026-05-07 14:54 | 50.84691 | 15.63879 | 34958 ft | 482 kts | 76° |
| 2026-05-07 14:54 | 50.86749 | 15.74010 | 34962 ft | 484 kts | 76° |
| 2026-05-07 14:55 | 50.88809 | 15.84201 | 34974 ft | 485 kts | 77° |
| 2026-05-07 14:55 | 50.90843 | 15.94313 | 34977 ft | 485 kts | 77° |
| 2026-05-07 14:56 | 50.92882 | 16.04506 | 34979 ft | 485 kts | 77° |
| 2026-05-07 14:56 | 50.94912 | 16.14709 | 34972 ft | 484 kts | 77° |
| 2026-05-07 14:57 | 50.96927 | 16.24890 | 34954 ft | 484 kts | 77° |
| 2026-05-07 14:57 | 50.98943 | 16.35125 | 34982 ft | 486 kts | 77° |
| 2026-05-07 14:58 | 51.00953 | 16.45388 | 34978 ft | 486 kts | 77° |
| 2026-05-07 14:58 | 51.02937 | 16.55571 | 34990 ft | 486 kts | 77° |
| 2026-05-07 14:59 | 51.04927 | 16.65842 | 34989 ft | 486 kts | 77° |
| 2026-05-07 14:59 | 51.06907 | 16.76115 | 34977 ft | 486 kts | 77° |
| 2026-05-07 15:00 | 51.08877 | 16.86388 | 34971 ft | 486 kts | 78° |
| 2026-05-07 15:00 | 51.10840 | 16.96683 | 34993 ft | 486 kts | 78° |
| 2026-05-07 15:01 | 51.12791 | 17.06972 | 34992 ft | 486 kts | 78° |
| 2026-05-07 15:01 | 51.14724 | 17.17225 | 34987 ft | 486 kts | 78° |
| 2026-05-07 15:02 | 51.16664 | 17.27567 | 34986 ft | 486 kts | 78° |
| 2026-05-07 15:02 | 51.18577 | 17.37824 | 34950 ft | 486 kts | 78° |
| 2026-05-07 15:03 | 51.20505 | 17.48219 | 34970 ft | 490 kts | 78° |
| 2026-05-07 15:03 | 51.22433 | 17.58671 | 34968 ft | 489 kts | 78° |
| 2026-05-07 15:04 | 51.24331 | 17.69019 | 34973 ft | 489 kts | 78° |
| 2026-05-07 15:04 | 51.26232 | 17.79444 | 34974 ft | 489 kts | 78° |
| 2026-05-07 15:05 | 51.28128 | 17.89896 | 34970 ft | 489 kts | 79° |
| 2026-05-07 15:05 | 51.30006 | 18.00314 | 34974 ft | 485 kts | 79° |
| 2026-05-07 15:06 | 51.31552 | 18.08935 | 34963 ft | 484 kts | 79° |
| 2026-05-07 15:06 | 51.33701 | 18.20986 | 34966 ft | 484 kts | 79° |
| 2026-05-07 15:07 | 51.35230 | 18.29611 | 34970 ft | 484 kts | 79° |
| 2026-05-07 15:07 | 51.37057 | 18.39970 | 34968 ft | 484 kts | 79° |
| 2026-05-07 15:08 | 51.38878 | 18.50358 | 34940 ft | 483 kts | 79° |
| 2026-05-07 15:08 | 51.40685 | 18.60724 | 34970 ft | 484 kts | 79° |
| 2026-05-07 15:09 | 51.42486 | 18.71115 | 34952 ft | 483 kts | 79° |
| 2026-05-07 15:09 | 51.43386 | 18.76338 | 33773 ft | 492 kts | 79° |
| 2026-05-07 15:09 | 51.44293 | 18.81600 | 33214 ft | 486 kts | 79° |
| 2026-05-07 15:10 | 51.45172 | 18.86729 | 32526 ft | 483 kts | 80° |
| 2026-05-07 15:10 | 51.46060 | 18.91919 | 31721 ft | 483 kts | 80° |
| 2026-05-07 15:10 | 51.46945 | 18.97112 | 30886 ft | 484 kts | 80° |
| 2026-05-07 15:10 | 51.47832 | 19.02330 | 30012 ft | 485 kts | 80° |
| 2026-05-07 15:11 | 51.48720 | 19.07571 | 29024 ft | 487 kts | 80° |
| 2026-05-07 15:11 | 51.49607 | 19.12819 | 28012 ft | 489 kts | 79° |
| 2026-05-07 15:11 | 51.50491 | 19.18067 | 27344 ft | 484 kts | 79° |
| 2026-05-07 15:11 | 51.51360 | 19.23237 | 26808 ft | 476 kts | 80° |
| 2026-05-07 15:12 | 51.52217 | 19.28360 | 26178 ft | 472 kts | 79° |
| 2026-05-07 15:12 | 51.53062 | 19.33419 | 25563 ft | 468 kts | 80° |
| 2026-05-07 15:12 | 51.53900 | 19.38456 | 24954 ft | 465 kts | 79° |
| 2026-05-07 15:12 | 51.54732 | 19.43465 | 24348 ft | 462 kts | 79° |
| 2026-05-07 15:13 | 51.55557 | 19.48450 | 23747 ft | 460 kts | 79° |
| 2026-05-07 15:13 | 51.56365 | 19.53349 | 23080 ft | 458 kts | 79° |
| 2026-05-07 15:13 | 51.57187 | 19.58343 | 22434 ft | 454 kts | 79° |
| 2026-05-07 15:13 | 51.57882 | 19.63241 | 21805 ft | 445 kts | 88° |
| 2026-05-07 15:14 | 51.57985 | 19.68157 | 21265 ft | 435 kts | 94° |
| 2026-05-07 15:14 | 51.58035 | 19.72900 | 20948 ft | 426 kts | 94° |
| 2026-05-07 15:14 | 51.58069 | 19.77590 | 20438 ft | 422 kts | 94° |
| 2026-05-07 15:14 | 51.58093 | 19.82295 | 19854 ft | 421 kts | 94° |
| 2026-05-07 15:15 | 51.58112 | 19.86976 | 19539 ft | 412 kts | 94° |
| 2026-05-07 15:15 | 51.58128 | 19.91534 | 19264 ft | 403 kts | 94° |
| 2026-05-07 15:15 | 51.58142 | 19.95989 | 18900 ft | 396 kts | 94° |
| 2026-05-07 15:15 | 51.57691 | 20.00307 | 18548 ft | 382 kts | 114° |
| 2026-05-07 15:16 | 51.56533 | 20.03991 | 18492 ft | 359 kts | 130° |
| 2026-05-07 15:16 | 51.54869 | 20.06811 | 18442 ft | 338 kts | 147° |
| 2026-05-07 15:16 | 51.52886 | 20.08674 | 18366 ft | 331 kts | 162° |
| 2026-05-07 15:16 | 51.50638 | 20.09608 | 18252 ft | 336 kts | 176° |
| 2026-05-07 15:17 | 51.48333 | 20.09542 | 18156 ft | 338 kts | 191° |
| 2026-05-07 15:17 | 51.46083 | 20.08486 | 18066 ft | 337 kts | 205° |
| 2026-05-07 15:17 | 51.44087 | 20.06533 | 17988 ft | 337 kts | 219° |
| 2026-05-07 15:17 | 51.42466 | 20.03837 | 17917 ft | 337 kts | 232° |
| 2026-05-07 15:18 | 51.41294 | 20.00560 | 17829 ft | 340 kts | 243° |
| 2026-05-07 15:18 | 51.40577 | 19.96947 | 17750 ft | 343 kts | 256° |
| 2026-05-07 15:18 | 51.40340 | 19.93134 | 17651 ft | 347 kts | 270° |
| 2026-05-07 15:18 | 51.40601 | 19.89275 | 17577 ft | 348 kts | 270° |
| 2026-05-07 15:19 | 51.40712 | 19.85407 | 17498 ft | 347 kts | 268° |
| 2026-05-07 15:19 | 51.40748 | 19.81556 | 17411 ft | 346 kts | 266° |
| 2026-05-07 15:19 | 51.40735 | 19.77750 | 17339 ft | 345 kts | 265° |
| 2026-05-07 15:19 | 51.40675 | 19.73914 | 17263 ft | 344 kts | 264° |
| 2026-05-07 15:20 | 51.40592 | 19.70089 | 17177 ft | 345 kts | 267° |
| 2026-05-07 15:20 | 51.41006 | 19.66297 | 16938 ft | 349 kts | 286° |
| 2026-05-07 15:20 | 51.42211 | 19.62839 | 16732 ft | 368 kts | 304° |
| 2026-05-07 15:20 | 51.44141 | 19.60007 | 16511 ft | 386 kts | 324° |
| 2026-05-07 15:21 | 51.46650 | 19.58328 | 16286 ft | 398 kts | 346° |
| 2026-05-07 15:21 | 51.49424 | 19.58281 | 16079 ft | 405 kts | 9° |
| 2026-05-07 15:21 | 51.52034 | 19.59943 | 15971 ft | 406 kts | 33° |
| 2026-05-07 15:21 | 51.54090 | 19.63028 | 15961 ft | 405 kts | 56° |
| 2026-05-07 15:22 | 51.55289 | 19.67069 | 15967 ft | 400 kts | 79° |
| 2026-05-07 15:22 | 51.55526 | 19.71478 | 15985 ft | 396 kts | 94° |
| 2026-05-07 15:22 | 51.55597 | 19.75909 | 15968 ft | 397 kts | 91° |
| 2026-05-07 15:22 | 51.55722 | 19.80349 | 15975 ft | 398 kts | 90° |
| 2026-05-07 15:23 | 51.56111 | 19.84759 | 15955 ft | 402 kts | 75° |
| 2026-05-07 15:23 | 51.57244 | 19.88887 | 15987 ft | 405 kts | 67° |
| 2026-05-07 15:23 | 51.58381 | 19.93032 | 15975 ft | 405 kts | 69° |
| 2026-05-07 15:23 | 51.59481 | 19.97168 | 15980 ft | 405 kts | 69° |
| 2026-05-07 15:24 | 51.60574 | 20.01347 | 15980 ft | 405 kts | 69° |
| 2026-05-07 15:24 | 51.61657 | 20.05531 | 15979 ft | 405 kts | 70° |
| 2026-05-07 15:24 | 51.62736 | 20.09718 | 15977 ft | 405 kts | 70° |
| 2026-05-07 15:24 | 51.63812 | 20.13910 | 15976 ft | 405 kts | 70° |
| 2026-05-07 15:25 | 51.64887 | 20.18104 | 15974 ft | 405 kts | 70° |
| 2026-05-07 15:25 | 51.65961 | 20.22304 | 15961 ft | 405 kts | 69° |
| 2026-05-07 15:25 | 51.67035 | 20.26513 | 15971 ft | 406 kts | 70° |
| 2026-05-07 15:25 | 51.68095 | 20.30673 | 15979 ft | 406 kts | 70° |
| 2026-05-07 15:26 | 51.69158 | 20.34850 | 15977 ft | 396 kts | 70° |
| 2026-05-07 15:26 | 51.70180 | 20.38872 | 15977 ft | 380 kts | 70° |
| 2026-05-07 15:26 | 51.71160 | 20.42734 | 15984 ft | 365 kts | 70° |
| 2026-05-07 15:26 | 51.72101 | 20.46449 | 15982 ft | 350 kts | 70° |
| 2026-05-07 15:27 | 51.73015 | 20.50065 | 15575 ft | 348 kts | 70° |
| 2026-05-07 15:27 | 51.73914 | 20.53634 | 15095 ft | 344 kts | 70° |
| 2026-05-07 15:27 | 51.74832 | 20.57285 | 14307 ft | 357 kts | 70° |
| 2026-05-07 15:27 | 51.75780 | 20.61059 | 13608 ft | 366 kts | 70° |
| 2026-05-07 15:28 | 51.76746 | 20.64908 | 12875 ft | 372 kts | 70° |
| 2026-05-07 15:28 | 51.77706 | 20.68743 | 12186 ft | 365 kts | 69° |
| 2026-05-07 15:28 | 51.78664 | 20.72577 | 11543 ft | 371 kts | 69° |
| 2026-05-07 15:28 | 51.79626 | 20.76431 | 10798 ft | 368 kts | 69° |
| 2026-05-07 15:29 | 51.80580 | 20.80258 | 9941 ft | 366 kts | 68° |
| 2026-05-07 15:29 | 51.81523 | 20.84055 | 9009 ft | 364 kts | 68° |
| 2026-05-07 15:29 | 51.82453 | 20.87804 | 8071 ft | 362 kts | 68° |
| 2026-05-07 15:29 | 51.83383 | 20.91556 | 7291 ft | 356 kts | 68° |
| 2026-05-07 15:30 | 51.84290 | 20.95219 | 6696 ft | 345 kts | 68° |
| 2026-05-07 15:30 | 51.85155 | 20.98723 | 6510 ft | 327 kts | 68° |
| 2026-05-07 15:30 | 51.85981 | 21.02071 | 6433 ft | 313 kts | 68° |
| 2026-05-07 15:30 | 51.86774 | 21.05290 | 6342 ft | 302 kts | 68° |
| 2026-05-07 15:31 | 51.87480 | 21.08449 | 6078 ft | 297 kts | 79° |
| 2026-05-07 15:31 | 51.87353 | 21.11694 | 5864 ft | 286 kts | 113° |
| 2026-05-07 15:31 | 51.86245 | 21.14189 | 5775 ft | 268 kts | 145° |
| 2026-05-07 15:31 | 51.84625 | 21.15361 | 5704 ft | 249 kts | 175° |
| 2026-05-07 15:32 | 51.82975 | 21.15162 | 5633 ft | 231 kts | 202° |
| 2026-05-07 15:32 | 51.81660 | 21.13929 | 5560 ft | 216 kts | 225° |
| 2026-05-07 15:32 | 51.80796 | 21.12036 | 5474 ft | 209 kts | 244° |
| 2026-05-07 15:32 | 51.80140 | 21.09861 | 5472 ft | 220 kts | 245° |
| 2026-05-07 15:33 | 51.79484 | 21.07590 | 5448 ft | 225 kts | 246° |
| 2026-05-07 15:33 | 51.78862 | 21.05260 | 5408 ft | 226 kts | 248° |
| 2026-05-07 15:33 | 51.78257 | 21.02919 | 5377 ft | 225 kts | 248° |
| 2026-05-07 15:33 | 51.77690 | 21.00564 | 5407 ft | 226 kts | 254° |
| 2026-05-07 15:34 | 51.77625 | 20.98060 | 5327 ft | 226 kts | 281° |
| 2026-05-07 15:34 | 51.78285 | 20.95767 | 5215 ft | 229 kts | 306° |
| 2026-05-07 15:34 | 51.79531 | 20.94172 | 5091 ft | 232 kts | 333° |
| 2026-05-07 15:34 | 51.81080 | 20.93700 | 5026 ft | 225 kts | 1° |
| 2026-05-07 15:35 | 51.82531 | 20.94397 | 5012 ft | 214 kts | 28° |
| 2026-05-07 15:35 | 51.83595 | 20.95955 | 4977 ft | 203 kts | 54° |
| 2026-05-07 15:35 | 51.84242 | 20.97960 | 4998 ft | 201 kts | 63° |
| 2026-05-07 15:35 | 51.84889 | 21.00019 | 5054 ft | 212 kts | 61° |
| 2026-05-07 15:36 | 51.85599 | 21.02193 | 5056 ft | 222 kts | 60° |
| 2026-05-07 15:36 | 51.86338 | 21.04432 | 5037 ft | 227 kts | 61° |
| 2026-05-07 15:36 | 51.87086 | 21.06685 | 5007 ft | 227 kts | 60° |
| 2026-05-07 15:36 | 51.87829 | 21.08927 | 4997 ft | 224 kts | 60° |
| 2026-05-07 15:37 | 51.88546 | 21.11092 | 4986 ft | 218 kts | 61° |
| 2026-05-07 15:37 | 51.89259 | 21.13242 | 4987 ft | 216 kts | 61° |
| 2026-05-07 15:37 | 51.90024 | 21.15340 | 4964 ft | 216 kts | 48° |
| 2026-05-07 15:37 | 51.91227 | 21.16685 | 4915 ft | 209 kts | 14° |
| 2026-05-07 15:38 | 51.92645 | 21.16828 | 4958 ft | 204 kts | 348° |
| 2026-05-07 15:38 | 51.94011 | 21.16227 | 5020 ft | 204 kts | 335° |
| 2026-05-07 15:38 | 51.95294 | 21.15250 | 4861 ft | 204 kts | 329° |
| 2026-05-07 15:38 | 51.96546 | 21.14150 | 4586 ft | 204 kts | 329° |
| 2026-05-07 15:39 | 51.97795 | 21.13058 | 4306 ft | 204 kts | 329° |
| 2026-05-07 15:39 | 51.99043 | 21.11972 | 4032 ft | 203 kts | 329° |
| 2026-05-07 15:39 | 52.00290 | 21.10890 | 3760 ft | 203 kts | 329° |
| 2026-05-07 15:39 | 52.01530 | 21.09813 | 3488 ft | 201 kts | 329° |
| 2026-05-07 15:40 | 52.02760 | 21.08746 | 3224 ft | 200 kts | 329° |
| 2026-05-07 15:40 | 52.03967 | 21.07696 | 2954 ft | 199 kts | 329° |
| 2026-05-07 15:40 | 52.05186 | 21.06637 | 2680 ft | 197 kts | 329° |
| 2026-05-07 15:40 | 52.06360 | 21.05614 | 2466 ft | 184 kts | 331° |
| 2026-05-07 15:41 | 52.07429 | 21.04688 | 2202 ft | 163 kts | 330° |
| 2026-05-07 15:41 | 52.08358 | 21.03876 | 2014 ft | 140 kts | 332° |
| 2026-05-07 15:41 | 52.09190 | 21.03145 | 1834 ft | 134 kts | 333° |
| 2026-05-07 15:41 | 52.10007 | 21.02439 | 1647 ft | 132 kts | 332° |
| 2026-05-07 15:42 | 52.10808 | 21.01740 | 1434 ft | 129 kts | 331° |
| 2026-05-07 15:42 | 52.11591 | 21.01030 | 1246 ft | 130 kts | 332° |
| 2026-05-07 15:42 | 52.12399 | 21.00378 | 1084 ft | 129 kts | 333° |
| 2026-05-07 15:42 | 52.13189 | 20.99708 | 899 ft | 128 kts | 329° |
| 2026-05-07 15:43 | 52.13961 | 20.99007 | 728 ft | 128 kts | 332° |
| 2026-05-07 15:43 | 52.14750 | 20.98319 | 575 ft | 129 kts | 330° |
| 2026-05-07 15:43 | 52.15534 | 20.97621 | 384 ft | 128 kts | 332° |
| 2026-05-07 15:43 | 52.16239 | 20.97004 | 349 ft | 97 kts | 331° |
| 2026-05-07 15:44 | 52.16677 | 20.96622 | 355 ft | 59 kts | 333° |
| 2026-05-07 15:44 | 52.16994 | 20.96512 | 349 ft | 18 kts | 3° |
| 2026-05-07 15:44 | 52.17079 | 20.96546 | 351 ft | 9 kts | 41° |
| 2026-05-07 15:44 | 52.17114 | 20.96640 | 358 ft | 11 kts | 62° |
| 2026-05-07 15:45 | 52.17152 | 20.96756 | 355 ft | 6 kts | 60° |
| 2026-05-07 15:45 | 52.17166 | 20.96824 | 359 ft | 3 kts | 110° |
| 2026-05-07 15:45 | 52.17146 | 20.96848 | 358 ft | 5 kts | 151° |
| 2026-05-07 15:45 | 52.17107 | 20.96882 | 352 ft | 8 kts | 152° |
| 2026-05-07 15:46 | 52.16975 | 20.96997 | 354 ft | 14 kts | 152° |
| 2026-05-07 15:46 | 52.16883 | 20.97077 | 357 ft | 17 kts | 152° |
| 2026-05-07 15:46 | 52.16841 | 20.97112 | 357 ft | 3 kts | 153° |
| 2026-05-07 15:47 | 52.16826 | 20.97143 | 355 ft | 4 kts | 97° |
| 2026-05-07 15:47 | 52.16834 | 20.97202 | 360 ft | 7 kts | 75° |
| 2026-05-07 15:47 | 52.16844 | 20.97261 | 352 ft | 1 kts | 76° |
| 2026-05-07 15:47 | 52.16846 | 20.97279 | 352 ft | 0 kts | 75° |
| 2026-05-07 15:48 | 52.16847 | 20.97279 | 352 ft | 0 kts | 75° |